This is the latest recevied weather packets stored in our database for station/object N7DQ. If no packets are shown the sender has not sent any weather packets the latest 10 day(s).
| Time | Temp. | Humidity | Pressure | Rain* | Wind** | Luminosity | Snow |
|---|---|---|---|---|---|---|---|
| 1777369806 | 8.89° C | 87% | 1021.9 hPa | 0 mm | - | 0 W/m² | - |
| 1777369506 | 8.89° C | 86% | 1021.9 hPa | 0 mm | - | 0 W/m² | - |
| 1777369206 | 8.89° C | 86% | 1021.9 hPa | 0 mm | - | 0 W/m² | - |
| 1777368905 | 8.89° C | 87% | 1022 hPa | 0 mm | - | 0 W/m² | - |
| 1777368606 | 8.89° C | 87% | 1022 hPa | 0 mm | - | 0 W/m² | - |
| 1777368306 | 8.89° C | 87% | 1022 hPa | 0 mm | - | 0 W/m² | - |
| 1777368006 | 8.89° C | 86% | 1022 hPa | 0 mm | - | 0 W/m² | - |
| 1777367706 | 8.89° C | 86% | 1022 hPa | 0 mm | - | 0 W/m² | - |
| 1777367406 | 8.89° C | 86% | 1022.1 hPa | 0 mm | - | 0 W/m² | - |
| 1777367109 | 8.89° C | 85% | 1022.1 hPa | 0 mm | - | 0 W/m² | - |
| 1777333505 | 13.33° C | 75% | 1019.2 hPa | 0 mm | - | 130 W/m² | - |
| 1777333205 | 13.33° C | 75% | 1019.2 hPa | 0 mm | - | 200 W/m² | - |
| 1777332905 | 13.33° C | 75% | 1019.2 hPa | 0 mm | - | 230 W/m² | - |
| 1777332605 | 13.33° C | 76% | 1019.2 hPa | 0 mm | - | 151 W/m² | - |
| 1777332305 | 13.33° C | 75% | 1019.2 hPa | 0 mm | - | 116 W/m² | - |
| 1777332005 | 13.33° C | 75% | 1019.2 hPa | 0 mm | - | 139 W/m² | - |
| 1777331705 | 13.33° C | 75% | 1019.2 hPa | 0 mm | - | 216 W/m² | - |
| 1777331406 | 13.89° C | 75% | 1019.2 hPa | 0 mm | - | 144 W/m² | - |
| 1777331105 | 13.89° C | 73% | 1019.1 hPa | 0 mm | - | 79 W/m² | - |
| 1777330806 | 13.89° C | 73% | 1019.1 hPa | 0 mm | - | 77 W/m² | - |
| 1777330505 | 13.89° C | 73% | 1019 hPa | 0 mm | - | 146 W/m² | - |
| 1777330205 | 13.89° C | 73% | 1019 hPa | 0 mm | - | 156 W/m² | - |
| 1777273206 | 10.56° C | 78% | 1015.1 hPa | 0 mm | - | 0 W/m² | - |
| 1777228205 | 16.67° C | 63% | 1010.8 hPa | 0 mm | - | 791 W/m² | - |
| 1777227905 | 16.11° C | 65% | 1010.7 hPa | 0 mm | - | 784 W/m² | - |
* Rain latest hour (hover to see other rain measurements)
** Current wind speed in m/s (hover to see current wind gust speed)